Aviation Digital Data Service (ADDS)

Output produced by METARs form (2223 UTC 16 February 2019)
found at http://www.aviationweather.gov/metar/data/
 
Forecast for: DFOO (BOBO-DIOULASSO , BF)
Text: TAF DFOO 161700Z 1618/1718 04008KT 6000 NSC
Forecast period: 1800 UTC 16 February 2019 to 0500 UTC 17 February 2019
Forecast type: FROM: standard forecast or significant change
Winds: from the NE (40 degrees) at 9 MPH (8 knots; 4.1 m/s)
Visibility: 4 miles (6 km)
Ceiling: unknown
Clouds: missing
Weather: no significant weather forecast for this period
Text: TEMPO 1618/1621 4000 DU
Forecast period: 1800 to 2100 UTC 16 February 2019
Forecast type: TEMPORARY: The following changes expected for less than half the time period
Visibility: 2.49 miles (4.01 km)
Ceiling: unknown
Clouds: missing
Weather: DU  (widespread dust)
Text: BECMG 1705/1707 3500 DU
Forecast period: 0500 to 1800 UTC 17 February 2019
Forecast type: BECOMING: Conditions expected to become as follows by 0700 UTC 17 February 2019
Winds: from the NE (40 degrees) at 9 MPH (8 knots; 4.1 m/s)
Visibility: 2.17 miles (3.49 km)
Ceiling: unknown
Clouds: missing
Weather: DU  (widespread dust)